Time;durP1;ratioP1;P1;durP2;ratioP2;P2;SDS_P1;SDS_P2;PMS_P1;PMS_P2;Temp;Humidity;BMP_temperature;BMP_pressure;BME280_temperature;BME280_humidity;BME280_pressure;Samples;Min_cycle;Max_cycle;Signal;HPM_P1;HPM_P2
2022/04/17 00:00:25;;;;;;;11.23;8.13;;;7.40;99.90;;;;;;4773361;30;20132;-57
2022/04/17 00:02:52;;;;;;;10.45;8.00;;;7.20;97.60;;;;;;4788994;30;20043;-57
2022/04/17 00:05:18;;;;;;;12.70;8.82;;;;;;;;;;4789055;30;20039;-57
2022/04/17 00:07:44;;;;;;;14.45;9.63;;;7.10;99.90;;;;;;4773336;30;20058;-57
2022/04/17 00:10:10;;;;;;;14.07;9.68;;;7.40;99.90;;;;;;4788804;30;20094;-57
2022/04/17 00:12:36;;;;;;;18.50;10.40;;;;;;;;;;4789435;30;20075;-57
2022/04/17 00:15:03;;;;;;;13.98;9.77;;;7.30;99.90;;;;;;4773136;30;20039;-57
2022/04/17 00:17:29;;;;;;;14.80;10.18;;;7.30;96.20;;;;;;4772455;30;20061;-57
2022/04/17 00:19:55;;;;;;;16.60;10.50;;;6.90;99.90;;;;;;4789260;30;20510;-57
2022/04/17 00:22:23;;;;;;;17.83;10.20;;;;;;;;;;4788508;30;20051;-57
2022/04/17 00:24:49;;;;;;;14.70;9.95;;;;;;;;;;4773114;30;20059;-57
2022/04/17 00:27:15;;;;;;;14.13;9.80;;;7.80;99.90;;;;;;4788609;30;20047;-57
2022/04/17 00:29:43;;;;;;;16.48;10.35;;;6.80;99.90;;;;;;4757828;30;20600;-56
2022/04/17 00:32:10;;;;;;;13.60;9.35;;;7.20;98.10;;;;;;4772267;30;20135;-57
2022/04/17 00:34:37;;;;;;;13.25;9.50;;;7.30;99.90;;;;;;4789092;30;20051;-56
2022/04/17 00:37:06;;;;;;;13.70;9.50;;;6.50;99.90;;;;;;4788960;30;20089;-56
2022/04/17 00:39:32;;;;;;;14.25;9.55;;;7.60;99.90;;;;;;4772244;30;20091;-56
2022/04/17 00:42:00;;;;;;;13.43;9.20;;;;;;;;;;4772232;30;20083;-57
2022/04/17 00:44:26;;;;;;;14.68;9.20;;;7.50;99.90;;;;;;4788545;30;20055;-57
2022/04/17 00:46:52;;;;;;;14.50;8.90;;;6.90;99.90;;;;;;4788910;30;20134;-57
2022/04/17 00:49:18;;;;;;;16.75;8.68;;;;;;;;;;4788519;30;20452;-56
2022/04/17 00:51:46;;;;;;;12.55;8.80;;;7.40;99.90;;;;;;4788392;30;20047;-57
2022/04/17 00:54:13;;;;;;;12.30;8.88;;;6.80;99.90;;;;;;4772004;30;20118;-56
2022/04/17 00:56:40;;;;;;;11.50;8.40;;;6.80;99.90;;;;;;4788426;30;20051;-56
2022/04/17 00:59:09;;;;;;;11.85;8.13;;;6.80;99.90;;;;;;4788532;30;20047;-56
2022/04/17 01:01:37;;;;;;;10.75;8.45;;;6.70;99.90;;;;;;4780563;30;20512;-56
2022/04/17 01:04:03;;;;;;;13.07;8.50;;;6.90;99.90;;;;;;4770400;30;20055;-56
2022/04/17 01:06:31;;;;;;;10.93;7.82;;;6.70;99.90;;;;;;4787382;29;20482;-56
2022/04/17 01:08:58;;;;;;;13.50;8.60;;;6.30;99.90;;;;;;4771633;30;20131;-57
2022/04/17 01:11:24;;;;;;;12.23;8.23;;;;;;;;;;4787594;30;20047;-57
2022/04/17 01:13:52;;;;;;;12.73;8.85;;;6.70;99.90;;;;;;4788092;30;20043;-57
2022/04/17 01:16:19;;;;;;;14.50;8.20;;;6.60;99.90;;;;;;4788085;30;20441;-56
2022/04/17 01:19:11;;;;;;;11.85;8.05;;;6.60;99.90;;;;;;4779784;30;20051;-56
2022/04/17 01:21:37;;;;;;;13.25;8.50;;;6.50;99.90;;;;;;4770182;30;20081;-56
2022/04/17 01:26:56;;;;;;;12.05;7.80;;;6.50;99.90;;;;;;4770131;30;20059;-56
2022/04/17 01:29:26;;;;;;;14.25;8.30;;;6.70;99.90;;;;;;4769994;30;20408;-56
2022/04/17 01:31:53;;;;;;;12.07;8.30;;;6.40;99.90;;;;;;4769841;30;20048;-56
2022/04/17 01:34:21;;;;;;;15.60;8.60;;;6.50;99.90;;;;;;4769945;30;20161;-56
2022/04/17 01:36:48;;;;;;;12.60;8.13;;;6.30;99.90;;;;;;4785395;30;20122;-56
2022/04/17 01:39:14;;;;;;;11.95;8.30;;;6.20;99.90;;;;;;4787607;30;20055;-56
2022/04/17 01:41:41;;;;;;;13.32;8.63;;;6.30;99.90;;;;;;4787533;30;20054;-56
2022/04/17 01:44:08;;;;;;;11.38;8.30;;;6.20;99.90;;;;;;4787741;30;20047;-56
2022/04/17 01:46:34;;;;;;;14.02;8.27;;;6.40;99.90;;;;;;4787306;30;20055;-56
2022/04/17 01:49:00;;;;;;;12.15;8.50;;;6.70;99.90;;;;;;4787488;30;20059;-56
2022/04/17 01:51:27;;;;;;;13.13;8.30;;;;;;;;;;4771119;30;20134;-57
2022/04/17 01:53:52;;;;;;;15.07;8.70;;;6.10;99.90;;;;;;4786941;30;20043;-56
2022/04/17 01:56:18;;;;;;;12.98;8.70;;;6.00;99.90;;;;;;4787021;30;20051;-56
2022/04/17 01:58:44;;;;;;;13.93;8.73;;;;;;;;;;4787749;30;20500;-56
2022/04/17 02:01:10;;;;;;;12.02;8.60;;;6.00;99.90;;;;;;4787155;30;20040;-57
2022/04/17 02:03:36;;;;;;;11.50;8.48;;;5.80;99.90;;;;;;4771135;30;20515;-56
2022/04/17 02:06:02;;;;;;;13.90;8.57;;;;;;;;;;4787272;30;20090;-57
2022/04/17 02:08:28;;;;;;;11.88;8.48;;;5.80;99.90;;;;;;4786982;30;20457;-56
2022/04/17 02:10:55;;;;;;;14.05;9.00;;;5.90;99.90;;;;;;4787552;30;20047;-56
2022/04/17 02:13:21;;;;;;;13.02;8.98;;;5.90;99.90;;;;;;4786892;30;20081;-56
2022/04/17 02:15:49;;;;;;;13.30;8.52;;;6.00;99.90;;;;;;4787433;30;20081;-56
2022/04/17 02:18:16;;;;;;;12.02;8.18;;;;;;;;;;4786741;30;20043;-57
2022/04/17 02:20:42;;;;;;;15.50;8.70;;;5.90;99.90;;;;;;4770255;30;20598;-56
2022/04/17 02:23:08;;;;;;;13.20;8.82;;;;;;;;;;4786784;30;20122;-56
2022/04/17 02:25:34;;;;;;;13.57;8.75;;;5.80;99.90;;;;;;4787189;30;20050;-56
2022/04/17 02:28:00;;;;;;;13.25;8.90;;;;;;;;;;4786907;30;20051;-56
2022/04/17 02:30:25;;;;;;;15.27;9.27;;;5.80;99.90;;;;;;4786798;30;20057;-56
2022/04/17 02:32:51;;;;;;;12.85;9.20;;;5.80;99.90;;;;;;4786995;30;20039;-56
2022/04/17 02:35:17;;;;;;;11.80;8.88;;;;;;;;;;4786313;30;20051;-56
2022/04/17 02:37:43;;;;;;;12.85;9.18;;;6.10;99.90;;;;;;4787183;30;20516;-56
2022/04/17 02:40:09;;;;;;;14.15;9.38;;;;;;;;;;4786364;30;20143;-57
2022/04/17 02:42:35;;;;;;;11.38;8.88;;;;;;;;;;4786914;30;20087;-56
2022/04/17 02:45:01;;;;;;;12.80;8.82;;;5.80;99.90;;;;;;4787062;30;20047;-57
2022/04/17 02:47:45;;;;;;;12.90;9.00;;;5.40;99.90;;;;;;4786355;30;20448;-57
2022/04/17 02:50:16;;;;;;;11.63;8.75;;;5.70;99.90;;;;;;4770484;30;20051;-57
2022/04/17 02:52:45;;;;;;;12.98;8.93;;;5.20;99.90;;;;;;4786576;30;20043;-57
2022/04/17 02:55:11;;;;;;;13.82;9.57;;;5.60;99.90;;;;;;4786333;30;20054;-56
2022/04/17 02:57:37;;;;;;;14.32;9.43;;;;;;;;;;4786804;30;20039;-56
2022/04/17 03:00:08;;;;;;;12.95;9.30;;;5.30;99.90;;;;;;4770787;30;20043;-57
2022/04/17 03:05:36;;;;;;;12.38;9.23;;;5.60;99.90;;;;;;4786465;30;20062;-56
2022/04/17 03:08:02;;;;;;;12.93;9.57;;;5.50;99.90;;;;;;4786706;30;20051;-56
2022/04/17 03:10:28;;;;;;;13.02;9.25;;;5.20;99.90;;;;;;4786116;29;20118;-56
2022/04/17 03:12:54;;;;;;;13.43;9.32;;;;;;;;;;4786622;30;20122;-56
2022/04/17 03:15:19;;;;;;;13.98;9.63;;;5.20;99.90;;;;;;4786457;30;20047;-56
2022/04/17 03:17:45;;;;;;;12.80;9.10;;;5.10;99.90;;;;;;4786379;30;20044;-56
2022/04/17 03:20:11;;;;;;;16.40;9.55;;;5.00;99.90;;;;;;4786167;29;20492;-57
2022/04/17 03:22:43;;;;;;;15.70;9.57;;;5.00;99.90;;;;;;4786732;30;20039;-56
2022/04/17 03:25:10;;;;;;;13.98;9.18;;;5.00;99.90;;;;;;4786467;30;20047;-57
2022/04/17 03:27:36;;;;;;;15.85;9.77;;;4.80;99.90;;;;;;4786310;29;20480;-56
2022/04/17 03:30:03;;;;;;;14.90;9.50;;;5.00;99.90;;;;;;4786839;29;20126;-56
2022/04/17 03:32:29;;;;;;;13.40;9.55;;;;;;;;;;4788415;29;20104;-56
2022/04/17 03:34:55;;;;;;;14.57;9.93;;;4.80;99.90;;;;;;4790195;29;20047;-57
2022/04/17 03:37:21;;;;;;;13.40;9.88;;;4.80;99.90;;;;;;4788351;30;20051;-56
2022/04/17 03:39:48;;;;;;;13.15;9.90;;;;;;;;;;4788793;30;20396;-56
2022/04/17 03:42:15;;;;;;;13.23;9.68;;;4.70;99.90;;;;;;4789174;29;20051;-56
2022/04/17 03:44:41;;;;;;;13.15;9.43;;;;;;;;;;4790158;29;20040;-56
2022/04/17 03:47:07;;;;;;;12.10;9.60;;;4.50;99.90;;;;;;4789132;30;20047;-56
2022/04/17 03:49:33;;;;;;;15.45;10.25;;;4.60;99.90;;;;;;4788706;30;20047;-56
2022/04/17 03:52:00;;;;;;;16.02;10.48;;;4.80;99.90;;;;;;4789511;29;20112;-56
2022/04/17 03:54:26;;;;;;;15.63;10.20;;;4.60;99.90;;;;;;4788567;30;20050;-57
2022/04/17 03:56:52;;;;;;;13.73;10.00;;;5.10;99.90;;;;;;4789410;29;20122;-56
2022/04/17 03:59:18;;;;;;;14.35;10.30;;;4.50;99.90;;;;;;4787976;30;20047;-56
2022/04/17 04:01:46;;;;;;;13.23;10.05;;;4.70;99.90;;;;;;4788976;29;20575;-57
2022/04/17 04:04:12;;;;;;;14.40;9.93;;;3.70;99.90;;;;;;4789309;29;20453;-56
2022/04/17 04:06:38;;;;;;;14.43;9.48;;;4.00;99.90;;;;;;4789274;29;20448;-56
2022/04/17 04:09:04;;;;;;;13.95;9.88;;;;;;;;;;4789463;29;20150;-56
2022/04/17 04:11:29;;;;;;;13.23;9.98;;;4.30;99.90;;;;;;4788894;30;20051;-56
2022/04/17 04:13:55;;;;;;;14.13;9.48;;;4.00;99.90;;;;;;4789444;30;20051;-56
2022/04/17 04:16:22;;;;;;;13.80;10.05;;;4.00;99.90;;;;;;4788541;30;20043;-57
2022/04/17 04:18:48;;;;;;;13.98;9.77;;;4.10;99.90;;;;;;4788176;30;20067;-57
2022/04/17 04:21:13;;;;;;;14.63;9.73;;;4.00;99.90;;;;;;4788409;30;20408;-56
2022/04/17 04:23:40;;;;;;;16.20;10.02;;;4.00;99.90;;;;;;4789568;29;20496;-56
2022/04/17 04:26:06;;;;;;;17.30;9.93;;;4.50;99.90;;;;;;4789113;29;20133;-56
2022/04/17 04:28:38;;;;;;;17.90;10.52;;;3.80;99.90;;;;;;4788844;29;20126;-56
2022/04/17 04:31:10;;;;;;;14.27;10.20;;;3.80;99.90;;;;;;4788660;29;20463;-56
2022/04/17 04:33:38;;;;;;;16.77;10.13;;;3.60;99.90;;;;;;4787914;30;20051;-57
2022/04/17 04:36:05;;;;;;;13.55;10.38;;;3.80;99.90;;;;;;4789102;29;20100;-57
2022/04/17 04:38:31;;;;;;;19.08;10.85;;;3.80;99.90;;;;;;4788392;29;20094;-56
2022/04/17 04:40:59;;;;;;;16.25;10.40;;;3.80;99.90;;;;;;4788857;29;20130;-57
2022/04/17 04:43:24;;;;;;;14.75;10.57;;;3.80;99.90;;;;;;4787443;29;20096;-56
2022/04/17 04:51:25;;;;;;;15.55;10.82;;;;;;;;;;4788329;29;20051;-57
2022/04/17 04:53:52;;;;;;;15.90;10.45;;;3.80;99.90;;;;;;4788729;29;20169;-56
2022/04/17 04:56:18;;;;;;;16.88;11.07;;;3.90;99.90;;;;;;4787860;29;20047;-57
2022/04/17 04:58:44;;;;;;;16.27;10.75;;;;;;;;;;4788293;29;20126;-56
2022/04/17 05:01:11;;;;;;;14.50;10.85;;;4.00;99.90;;;;;;4787925;30;20051;-56
2022/04/17 05:03:37;;;;;;;16.08;11.20;;;4.10;99.90;;;;;;4788541;29;20047;-56
2022/04/17 05:06:03;;;;;;;16.50;11.35;;;;;;;;;;4788299;29;20059;-56
2022/04/17 05:08:29;;;;;;;18.38;11.18;;;4.20;99.90;;;;;;4788161;30;20134;-56
2022/04/17 05:10:55;;;;;;;16.88;11.40;;;;;;;;;;4802425;29;20051;-57
2022/04/17 05:13:21;;;;;;;15.65;11.20;;;3.80;99.90;;;;;;4787576;30;20040;-56
2022/04/17 05:15:47;;;;;;;16.90;11.50;;;4.40;99.90;;;;;;4788155;29;20514;-56
2022/04/17 05:18:13;;;;;;;16.92;11.50;;;4.50;99.90;;;;;;4788036;29;20396;-57
2022/04/17 05:20:39;;;;;;;19.73;11.75;;;;;;;;;;4788456;29;20511;-57
2022/04/17 05:23:17;;;;;;;16.67;11.80;;;6.50;99.90;;;;;;4786931;30;20066;-57
2022/04/17 05:25:44;;;;;;;18.30;11.52;;;7.60;99.90;;;;;;4787792;29;20058;-57
2022/04/17 05:28:10;;;;;;;15.93;11.60;;;8.50;99.90;;;;;;4787305;29;20039;-57
2022/04/17 05:30:36;;;;;;;19.25;11.40;;;9.70;99.90;;;;;;4788062;29;20116;-57
2022/04/17 05:33:01;;;;;;;16.77;11.13;;;10.90;99.90;;;;;;4801621;29;20404;-57
2022/04/17 05:35:27;;;;;;;15.77;10.63;;;11.40;99.90;;;;;;4787221;29;20072;-58
2022/04/17 05:37:53;;;;;;;15.30;10.88;;;;;;;;;;4787419;29;20069;-58
2022/04/17 05:40:19;;;;;;;15.57;10.43;;;;;;;;;;4785955;30;20055;-58
2022/04/17 05:42:46;;;;;;;13.93;9.95;;;;;;;;;;4787568;30;20054;-58
2022/04/17 05:45:11;;;;;;;18.27;10.43;;;14.00;86.10;;;;;;4787424;30;20079;-58
2022/04/17 05:47:37;;;;;;;15.02;11.00;;;14.30;66.00;;;;;;4787455;29;20086;-58
2022/04/17 05:50:05;;;;;;;15.60;11.25;;;15.10;79.40;;;;;;4787536;29;20469;-58
2022/04/17 05:52:31;;;;;;;18.55;10.65;;;15.30;72.20;;;;;;4786946;29;20035;-58
2022/04/17 05:54:57;;;;;;;12.82;10.55;;;16.00;75.10;;;;;;4787226;29;20534;-58
2022/04/17 05:57:23;;;;;;;15.45;10.60;;;16.30;72.10;;;;;;4785273;30;20057;-58
2022/04/17 05:59:49;;;;;;;13.77;10.00;;;17.00;59.30;;;;;;4801517;29;20054;-58
2022/04/17 06:02:15;;;;;;;13.82;10.63;;;;;;;;;;4785955;30;20086;-58
2022/04/17 06:04:41;;;;;;;13.43;10.38;;;17.40;49.40;;;;;;4787410;30;20048;-58
2022/04/17 06:07:08;;;;;;;15.73;11.80;;;18.70;48.80;;;;;;4785753;30;20492;-58
2022/04/17 06:09:35;;;;;;;15.65;11.82;;;;;;;;;;4787403;29;20043;-58
2022/04/17 06:12:00;;;;;;;14.50;10.07;;;18.40;53.60;;;;;;4787211;30;20092;-58
2022/04/17 06:14:26;;;;;;;13.65;10.27;;;18.70;65.70;;;;;;4786805;29;20402;-59
2022/04/17 06:16:52;;;;;;;15.98;12.38;;;;;;;;;;4787304;29;20044;-58
2022/04/17 06:19:18;;;;;;;14.35;10.15;;;19.70;63.70;;;;;;4786820;30;20503;-58
2022/04/17 06:21:44;;;;;;;15.55;10.40;;;19.30;59.20;;;;;;4787266;29;20116;-58
2022/04/17 06:24:10;;;;;;;17.73;9.88;;;;;;;;;;4785948;29;20457;-58
2022/04/17 06:26:35;;;;;;;13.10;9.10;;;19.20;62.60;;;;;;4785830;30;20067;-58
2022/04/17 06:29:05;;;;;;;13.23;9.50;;;19.80;60.70;;;;;;4786519;30;20051;-58
2022/04/17 06:31:32;;;;;;;16.42;10.50;;;20.50;61.50;;;;;;4770266;30;20040;-58
2022/04/17 06:33:57;;;;;;;15.57;10.10;;;20.70;60.70;;;;;;4772101;30;20040;-58
2022/04/17 06:36:23;;;;;;;18.02;10.30;;;20.00;57.40;;;;;;4785020;30;20070;-59
2022/04/17 06:38:49;;;;;;;16.40;11.38;;;21.10;59.50;;;;;;4786096;30;20630;-58
2022/04/17 06:41:15;;;;;;;15.43;10.90;;;;;;;;;;4785925;30;20043;-59
2022/04/17 06:43:40;;;;;;;13.75;11.10;;;21.60;52.40;;;;;;4786227;30;20039;-58
2022/04/17 06:46:06;;;;;;;15.65;10.05;;;;;;;;;;4786433;30;20065;-58
2022/04/17 06:48:32;;;;;;;13.60;10.68;;;22.50;59.10;;;;;;4785884;30;20047;-58
2022/04/17 06:50:58;;;;;;;15.30;10.40;;;22.20;57.80;;;;;;4785611;30;20059;-58
2022/04/17 06:53:24;;;;;;;17.75;9.93;;;;;;;;;;4785402;30;20071;-58
2022/04/17 06:55:52;;;;;;;14.45;9.90;;;;;;;;;;4783236;30;20401;-58
2022/04/17 06:58:19;;;;;;;14.93;8.82;;;22.60;38.70;;;;;;4785409;30;20043;-58
2022/04/17 07:00:45;;;;;;;13.48;9.77;;;23.00;36.40;;;;;;4770073;30;20055;-58
2022/04/17 07:03:13;;;;;;;12.40;9.25;;;;;;;;;;4785663;30;20100;-59
2022/04/17 07:05:39;;;;;;;15.32;9.88;;;23.40;55.20;;;;;;4785328;29;20059;-58
2022/04/17 07:08:06;;;;;;;13.18;9.27;;;24.00;55.60;;;;;;4790261;30;20484;-58
2022/04/17 07:10:37;;;;;;;12.85;8.90;;;23.80;48.40;;;;;;4789699;30;20047;-58
2022/04/17 07:13:04;;;;;;;12.38;9.10;;;24.10;54.70;;;;;;4773783;30;20111;-58
2022/04/17 07:15:30;;;;;;;13.55;8.68;;;24.40;41.20;;;;;;4789447;30;20078;-58
2022/04/17 07:17:56;;;;;;;12.32;8.95;;;;;;;;;;4788262;29;20456;-58
2022/04/17 07:20:24;;;;;;;12.70;9.23;;;24.50;33.80;;;;;;4772019;30;20090;-58
2022/04/17 07:22:50;;;;;;;11.60;8.52;;;23.90;53.50;;;;;;4772366;30;20474;-58
2022/04/17 07:25:16;;;;;;;11.65;8.90;;;24.30;53.90;;;;;;4772389;30;20052;-58
2022/04/17 07:27:50;;;;;;;11.52;8.50;;;24.20;53.00;;;;;;4772372;30;20105;-58
2022/04/17 07:30:25;;;;;;;14.60;8.80;;;24.90;43.10;;;;;;4772626;30;20116;-58
2022/04/17 07:32:52;;;;;;;11.55;8.68;;;24.00;33.20;;;;;;4771349;30;20047;-58
2022/04/17 07:35:20;;;;;;;11.90;8.05;;;24.60;51.90;;;;;;4772466;30;20047;-58
2022/04/17 07:37:53;;;;;;;14.85;8.90;;;25.00;32.50;;;;;;4786261;30;20400;-59
2022/04/17 07:40:23;;;;;;;12.43;8.27;;;24.90;32.60;;;;;;4771987;30;20419;-58
2022/04/17 07:42:50;;;;;;;12.07;8.40;;;24.80;52.10;;;;;;4772511;30;20501;-58
2022/04/17 07:45:17;;;;;;;14.45;7.95;;;24.50;50.30;;;;;;4772264;30;20465;-58
2022/04/17 07:47:44;;;;;;;12.85;8.15;;;24.00;53.20;;;;;;4770918;30;20063;-57
2022/04/17 07:50:12;;;;;;;11.50;7.97;;;23.50;53.40;;;;;;4771401;30;20156;-58
2022/04/17 07:52:39;;;;;;;12.23;7.80;;;22.90;54.70;;;;;;4771729;30;20166;-58
2022/04/17 07:55:06;;;;;;;11.10;7.60;;;23.00;56.40;;;;;;4772238;30;20047;-58
2022/04/17 07:57:53;;;;;;;11.57;7.38;;;22.20;55.60;;;;;;4772101;30;20136;-58
2022/04/17 08:00:22;;;;;;;11.50;7.90;;;21.40;57.30;;;;;;4771904;30;20059;-58
2022/04/17 08:03:08;;;;;;;12.45;7.72;;;22.00;42.10;;;;;;4770873;30;20063;-58
2022/04/17 08:05:38;;;;;;;11.25;7.50;;;21.20;38.80;;;;;;4771820;30;20137;-58
2022/04/17 08:08:04;;;;;;;10.73;7.20;;;20.20;58.10;;;;;;4771525;30;20168;-58
2022/04/17 08:10:30;;;;;;;8.82;7.20;;;21.10;58.60;;;;;;4771562;30;20404;-58
2022/04/17 08:12:56;;;;;;;10.02;7.35;;;21.40;59.40;;;;;;4772035;30;20040;-58
2022/04/17 08:15:22;;;;;;;10.68;7.07;;;;;;;;;;4770815;30;20464;-58
2022/04/17 08:17:47;;;;;;;17.52;7.65;;;20.70;59.30;;;;;;4771863;30;20137;-58
2022/04/17 08:20:13;;;;;;;10.60;7.05;;;20.50;51.90;;;;;;4773766;30;20509;-58
2022/04/17 08:22:39;;;;;;;12.30;7.38;;;19.70;58.80;;;;;;4789192;30;20092;-58
2022/04/17 08:25:05;;;;;;;9.30;6.57;;;20.50;59.20;;;;;;4789770;29;20459;-58
2022/04/17 08:27:30;;;;;;;12.20;7.00;;;20.60;49.80;;;;;;4789515;29;20159;-57
2022/04/17 08:29:56;;;;;;;8.73;6.82;;;20.50;59.30;;;;;;4789676;30;20496;-58
2022/04/17 08:32:21;;;;;;;12.40;6.75;;;20.20;59.30;;;;;;4789026;30;20043;-58
2022/04/17 08:34:47;;;;;;;13.55;6.53;;;;;;;;;;4803561;29;20391;-58
2022/04/17 08:37:13;;;;;;;8.85;6.70;;;19.80;59.90;;;;;;4788679;30;20493;-58
2022/04/17 08:39:39;;;;;;;8.88;6.05;;;;;;;;;;4789412;30;20142;-61
2022/04/17 08:42:06;;;;;;;7.72;5.72;;;21.60;41.50;;;;;;4789361;30;20163;-61
2022/04/17 08:44:32;;;;;;;9.82;6.80;;;;;;;;;;4788073;30;20059;-61
2022/04/17 08:46:58;;;;;;;12.23;6.50;;;19.20;59.20;;;;;;4789321;29;20405;-61
2022/04/17 08:49:24;;;;;;;9.32;6.00;;;19.30;58.90;;;;;;4789052;30;20043;-61
2022/04/17 08:51:53;;;;;;;12.50;6.43;;;19.00;48.30;;;;;;4787773;30;20118;-61
2022/04/17 08:54:20;;;;;;;9.73;5.90;;;19.00;60.20;;;;;;4789071;29;20504;-61
2022/04/17 08:56:46;;;;;;;9.57;6.28;;;18.90;60.30;;;;;;4789212;29;20055;-61
2022/04/17 08:59:13;;;;;;;10.82;5.95;;;18.80;60.70;;;;;;4788936;30;20507;-61
2022/04/17 09:01:39;;;;;;;9.98;6.32;;;18.60;61.10;;;;;;4788759;29;20057;-61
2022/04/17 09:04:05;;;;;;;9.40;6.00;;;18.40;62.20;;;;;;4788906;29;20073;-61
2022/04/17 09:06:31;;;;;;;11.32;6.30;;;18.40;42.80;;;;;;4788154;30;20444;-61
2022/04/17 09:08:57;;;;;;;11.88;6.20;;;;;;;;;;4788787;29;20535;-61
2022/04/17 09:11:28;;;;;;;11.50;7.03;;;17.70;46.60;;;;;;4788683;30;20040;-61
2022/04/17 09:13:55;;;;;;;10.55;6.82;;;18.00;63.40;;;;;;4788778;29;20046;-61
2022/04/17 09:16:50;;;;;;;9.02;5.93;;;17.80;64.20;;;;;;4788585;29;20129;-61
2022/04/17 09:19:18;;;;;;;8.00;5.93;;;17.80;51.40;;;;;;4786966;30;20067;-61
2022/04/17 09:21:43;;;;;;;8.70;6.20;;;17.60;63.80;;;;;;4787181;30;20388;-61
2022/04/17 09:24:20;;;;;;;8.93;6.07;;;18.30;53.80;;;;;;4788162;30;20126;-61
2022/04/17 09:26:52;;;;;;;8.55;6.03;;;17.70;44.00;;;;;;4788575;29;20051;-61
2022/04/17 09:29:19;;;;;;;10.20;6.00;;;17.90;55.60;;;;;;4786734;29;20481;-61
2022/04/17 09:31:45;;;;;;;11.40;5.68;;;18.00;49.00;;;;;;4788105;29;20051;-61
2022/04/17 09:34:11;;;;;;;8.13;5.32;;;;;;;;;;4787882;29;20130;-61
2022/04/17 09:36:38;;;;;;;7.70;5.72;;;18.10;63.40;;;;;;4787085;30;20079;-61
2022/04/17 09:39:14;;;;;;;8.45;5.40;;;18.60;63.90;;;;;;4772093;30;20055;-61
2022/04/17 09:41:57;;;;;;;7.72;5.28;;;17.40;62.90;;;;;;4787271;30;20051;-61
2022/04/17 09:44:45;;;;;;;10.43;5.70;;;18.10;43.90;;;;;;4787817;29;20345;-60
2022/04/17 09:47:12;;;;;;;8.75;5.68;;;;;;;;;;4787670;29;20055;-60
2022/04/17 09:49:54;;;;;;;7.82;5.10;;;18.10;44.30;;;;;;4769331;30;20039;-60
2022/04/17 09:52:22;;;;;;;7.97;5.20;;;17.80;44.10;;;;;;4787236;30;20082;-60
2022/04/17 09:54:49;;;;;;;7.57;5.40;;;18.10;63.20;;;;;;4788021;30;20073;-60
2022/04/17 09:57:30;;;;;;;6.90;5.05;;;18.00;43.70;;;;;;4770330;30;20089;-60
2022/04/17 09:59:57;;;;;;;7.00;5.15;;;18.00;43.50;;;;;;4786269;30;20047;-60
2022/04/17 10:02:25;;;;;;;7.13;5.00;;;18.20;44.10;;;;;;4787758;30;20048;-60
2022/04/17 10:04:51;;;;;;;7.07;5.25;;;;;;;;;;4787316;30;20050;-60
2022/04/17 10:07:19;;;;;;;9.45;5.85;;;18.40;63.60;;;;;;4787189;30;20135;-60
2022/04/17 10:09:46;;;;;;;8.38;5.97;;;17.90;44.50;;;;;;4787972;30;20075;-60
2022/04/17 10:12:19;;;;;;;8.02;5.63;;;17.40;51.60;;;;;;4771219;30;20130;-60
2022/04/17 10:14:48;;;;;;;9.20;5.63;;;;;;;;;;4788006;30;20125;-60
2022/04/17 10:17:14;;;;;;;9.25;5.55;;;;;;;;;;4787281;30;20047;-60
2022/04/17 10:19:42;;;;;;;8.18;5.78;;;17.70;47.90;;;;;;4787366;30;20082;-60
2022/04/17 10:22:10;;;;;;;8.73;6.03;;;17.60;46.90;;;;;;4756330;30;20107;-61
2022/04/17 10:24:37;;;;;;;9.10;5.00;;;;;;;;;;4771343;30;20489;-61
2022/04/17 10:27:04;;;;;;;7.55;5.35;;;17.50;81.10;;;;;;4787417;30;20401;-61
2022/04/17 10:29:30;;;;;;;7.35;5.03;;;;;;;;;;4771338;30;20150;-60
2022/04/17 10:32:26;;;;;;;8.27;5.10;;;17.70;43.80;;;;;;4786952;30;20047;-60
2022/04/17 10:34:55;;;;;;;8.35;4.95;;;;;;;;;;4786189;30;20043;-61
2022/04/17 10:37:27;;;;;;;9.15;4.57;;;;;;;;;;4787081;30;20122;-58
2022/04/17 10:39:57;;;;;;;11.85;4.75;;;;;;;;;;4787066;30;20063;-60
2022/04/17 10:42:33;;;;;;;6.22;4.45;;;;;;;;;;4786090;30;20127;-59
2022/04/17 10:45:09;;;;;;;7.32;5.07;;;17.60;41.70;;;;;;4786049;30;20111;-59
2022/04/17 10:47:34;;;;;;;;;;;17.40;44.40;;;;;;4787242;30;20081;-59
2022/04/17 10:50:01;;;;;;;;;;;;;;;;;;4787759;30;19959;-59
2022/04/17 10:52:29;;;;;;;8.20;4.90;;;;;;;;;;4770523;30;19925;-59
2022/04/17 10:54:55;;;;;;;8.00;5.07;;;;;;;;;;4767491;30;20050;-59
2022/04/17 10:57:26;;;;;;;12.35;5.57;;;17.70;42.80;;;;;;4770621;30;20050;-59
2022/04/17 11:00:12;;;;;;;7.05;5.35;;;;;;;;;;4784931;30;20090;-59
2022/04/17 11:02:38;;;;;;;8.25;5.43;;;;;;;;;;4786788;30;20185;-59
2022/04/17 11:05:06;;;;;;;9.02;5.50;;;;;;;;;;4787727;30;20066;-59
2022/04/17 11:07:32;;;;;;;9.60;5.30;;;;;;;;;;4772279;30;20162;-59
2022/04/17 11:10:23;;;;;;;7.50;5.47;;;17.90;44.40;;;;;;4772292;30;20054;-59
2022/04/17 11:12:54;;;;;;;7.45;5.30;;;17.80;44.60;;;;;;4771688;30;20047;-59
2022/04/17 11:15:20;;;;;;;7.63;5.40;;;;;;;;;;4771610;30;20091;-59
2022/04/17 11:17:48;;;;;;;8.30;5.40;;;;;;;;;;4787945;30;20043;-59
2022/04/17 11:20:15;;;;;;;8.57;5.50;;;17.90;42.80;;;;;;4787450;30;20104;-59
2022/04/17 11:22:41;;;;;;;8.88;5.68;;;17.70;74.80;;;;;;4788018;30;20047;-60
2022/04/17 11:25:12;;;;;;;8.82;5.75;;;17.90;42.70;;;;;;4787925;30;20054;-60
2022/04/17 11:27:58;;;;;;;8.80;6.07;;;17.90;43.40;;;;;;4786198;30;20055;-60
2022/04/17 11:30:24;;;;;;;7.72;5.57;;;;;;;;;;4787862;30;20134;-60
2022/04/17 11:32:51;;;;;;;8.25;5.68;;;;;;;;;;4787743;30;20153;-61
2022/04/17 11:35:19;;;;;;;7.18;5.60;;;18.10;43.10;;;;;;4772127;30;20126;-60
2022/04/17 11:38:14;;;;;;;8.85;5.63;;;18.10;43.20;;;;;;4787488;30;20581;-60
2022/04/17 11:40:44;;;;;;;8.60;5.65;;;17.90;72.60;;;;;;4743916;30;20067;-61
2022/04/17 11:43:15;;;;;;;10.70;6.35;;;;;;;;;;4722089;30;20135;-61
2022/04/17 11:45:42;;;;;;;9.43;6.72;;;18.10;42.20;;;;;;4735926;30;20165;-60
2022/04/17 11:48:13;;;;;;;9.13;6.30;;;;;;;;;;4751735;30;20448;-61
2022/04/17 11:50:40;;;;;;;8.40;5.95;;;;;;;;;;4736137;30;20397;-60
2022/04/17 11:53:13;;;;;;;8.75;5.90;;;18.20;43.00;;;;;;4738321;30;20052;-61
2022/04/17 11:55:41;;;;;;;10.32;6.18;;;18.40;42.80;;;;;;4755358;30;20186;-60
2022/04/17 11:58:11;;;;;;;10.25;6.53;;;;;;;;;;4724770;30;20056;-60
2022/04/17 12:00:38;;;;;;;9.02;6.15;;;;;;;;;;4755273;30;20102;-60
2022/04/17 12:03:05;;;;;;;8.68;6.25;;;;;;;;;;4739053;30;20052;-60
2022/04/17 12:05:32;;;;;;;8.70;6.22;;;18.80;41.80;;;;;;4739439;30;20051;-63
2022/04/17 12:08:13;;;;;;;10.13;6.20;;;;;;;;;;4739010;30;20048;-60
2022/04/17 12:10:43;;;;;;;8.90;6.50;;;18.90;40.90;;;;;;4755139;30;20048;-60
2022/04/17 12:13:36;;;;;;;11.23;6.78;;;18.70;40.50;;;;;;4753841;30;20044;-60
2022/04/17 12:16:04;;;;;;;9.18;6.47;;;18.80;72.50;;;;;;4752110;30;20531;-60
2022/04/17 12:18:30;;;;;;;9.18;6.45;;;;;;;;;;4754627;30;20051;-60
2022/04/17 12:20:56;;;;;;;10.90;6.63;;;;;;;;;;4754630;30;20497;-60
2022/04/17 12:23:26;;;;;;;8.85;6.25;;;18.80;40.10;;;;;;4754883;30;20131;-60
2022/04/17 12:25:53;;;;;;;9.70;6.40;;;18.60;40.80;;;;;;4754622;30;20052;-60
2022/04/17 12:28:20;;;;;;;9.98;5.95;;;18.70;40.70;;;;;;4753657;30;20562;-60
2022/04/17 12:30:46;;;;;;;20.23;6.07;;;18.80;71.10;;;;;;4754774;30;20119;-60
2022/04/17 12:33:23;;;;;;;8.63;5.97;;;18.90;39.90;;;;;;4738527;30;20123;-60
2022/04/17 12:36:09;;;;;;;9.82;6.10;;;18.50;70.70;;;;;;4754449;30;20083;-60
2022/04/17 12:38:40;;;;;;;9.18;6.22;;;;;;;;;;4760610;30;20095;-60
2022/04/17 12:41:28;;;;;;;8.00;6.00;;;;;;;;;;4774243;30;20170;-60
2022/04/17 12:43:54;;;;;;;10.13;5.82;;;18.80;39.20;;;;;;4789913;30;20075;-60
2022/04/17 12:46:27;;;;;;;9.48;5.95;;;19.00;38.80;;;;;;4789883;30;20134;-60
2022/04/17 12:49:06;;;;;;;10.00;5.70;;;18.90;46.90;;;;;;4790127;30;20062;-60
2022/04/17 12:51:33;;;;;;;11.80;5.85;;;;;;;;;;4773936;30;20052;-60
2022/04/17 12:54:01;;;;;;;8.52;5.82;;;19.30;38.30;;;;;;4789801;30;20208;-60
2022/04/17 12:56:27;;;;;;;10.68;6.90;;;;;;;;;;4790043;30;20150;-60
2022/04/17 12:58:58;;;;;;;9.38;6.63;;;18.80;68.30;;;;;;4789963;30;20116;-60
2022/04/17 13:01:25;;;;;;;18.80;7.38;;;;;;;;;;4773797;30;20088;-61
2022/04/17 13:03:51;;;;;;;11.27;6.32;;;;;;;;;;4789001;29;20051;-61
2022/04/17 13:06:22;;;;;;;9.50;6.05;;;18.70;68.40;;;;;;4759260;30;20047;-61
2022/04/17 13:09:23;;;;;;;9.82;6.38;;;18.90;68.70;;;;;;4789829;30;20122;-60
2022/04/17 13:11:51;;;;;;;9.10;6.50;;;18.80;39.20;;;;;;4745083;30;20051;-60
2022/04/17 13:14:19;;;;;;;9.60;6.68;;;;;;;;;;4788435;30;20087;-60
2022/04/17 13:16:50;;;;;;;15.60;6.93;;;19.10;38.10;;;;;;4773389;30;20554;-61
2022/04/17 13:19:17;;;;;;;11.45;6.57;;;19.40;38.90;;;;;;4789531;30;20440;-61
2022/04/17 13:21:43;;;;;;;11.02;6.78;;;;;;;;;;4789238;30;20077;-61
2022/04/17 13:24:15;;;;;;;9.80;6.05;;;19.70;38.80;;;;;;4789414;30;20151;-59